Time;durP1;ratioP1;P1;durP2;ratioP2;P2;SDS_P1;SDS_P2;PMS_P1;PMS_P2;Temp;Humidity;BMP_temperature;BMP_pressure;BME280_temperature;BME280_humidity;BME280_pressure;Samples;Min_cycle;Max_cycle;Signal;HPM_P1;HPM_P2
2023/04/13 00:00:01;;;;;;;40.63;32.40;;;;;;;;;;5078887;28;20394;-89
2023/04/13 00:02:55;;;;;;;39.73;32.03;;;;;;;;;;5078981;28;20327;-90
2023/04/13 00:05:22;;;;;;;47.10;33.43;;;;;;;;;;5079299;28;20185;-90
2023/04/13 00:07:49;;;;;;;47.37;32.30;;;;;;;;;;5076626;28;20192;-90
2023/04/13 00:10:17;;;;;;;44.00;33.17;;;;;;;;;;5078472;28;20192;-90
2023/04/13 00:12:47;;;;;;;40.40;31.83;;;;;;;;;;5076403;28;20169;-90
2023/04/13 00:15:14;;;;;;;45.37;32.60;;;;;;;;;;5071161;28;20259;-89
2023/04/13 00:17:41;;;;;;;41.93;31.07;;;;;;;;;;5072060;28;20578;-90
2023/04/13 00:20:11;;;;;;;43.97;31.00;;;;;;;;;;5072729;28;20252;-90
2023/04/13 00:22:37;;;;;;;40.80;30.97;;;;;;;;;;5072671;28;20521;-90
2023/04/13 00:25:04;;;;;;;43.90;32.60;;;;;;;;;;5072667;28;20192;-90
2023/04/13 00:27:30;;;;;;;44.33;33.97;;;;;;;;;;5072638;28;20165;-89
2023/04/13 00:29:56;;;;;;;39.43;31.00;;;;;;;;;;5072369;28;20164;-90
2023/04/13 00:32:22;;;;;;;38.57;30.60;;;;;;;;;;5071876;28;20173;-90
2023/04/13 00:34:49;;;;;;;44.03;32.07;;;;;;;;;;5072254;28;20188;-90
2023/04/13 00:37:14;;;;;;;41.57;30.27;;;;;;;;;;5072809;28;20169;-89
2023/04/13 00:39:42;;;;;;;37.20;29.50;;;;;;;;;;5072647;28;20218;-90
2023/04/13 00:42:08;;;;;;;41.73;32.10;;;;;;;;;;5072666;28;20200;-90
2023/04/13 00:44:35;;;;;;;45.27;32.80;;;;;;;;;;5072903;28;20185;-90
2023/04/13 00:47:04;;;;;;;45.80;31.27;;;;;;;;;;5072421;28;20550;-90
2023/04/13 00:49:32;;;;;;;36.47;29.10;;;;;;;;;;5071999;28;20177;-90
2023/04/13 00:51:59;;;;;;;41.67;31.00;;;;;;;;;;5072362;28;20168;-90
2023/04/13 00:54:26;;;;;;;34.67;27.53;;;;;;;;;;5071932;28;20175;-90
2023/04/13 00:56:53;;;;;;;40.17;32.07;;;;;;;;;;5072783;28;20207;-90
2023/04/13 00:59:19;;;;;;;41.13;29.57;;;;;;;;;;5071444;28;20171;-90
2023/04/13 01:01:49;;;;;;;42.83;31.77;;;;;;;;;;5071465;28;20173;-90
2023/04/13 01:04:17;;;;;;;40.97;31.00;;;;;;;;;;5072052;28;20184;-90
2023/04/13 01:06:54;;;;;;;39.77;30.00;;;;;;;;;;5071492;28;20177;-90
2023/04/13 01:09:28;;;;;;;39.50;29.47;;;;;;;;;;5070786;28;20203;-90
2023/04/13 01:12:12;;;;;;;34.33;27.03;;;;;;;;;;5072442;28;20189;-90
2023/04/13 01:14:47;;;;;;;36.37;27.10;;;;;;;;;;5067694;28;20181;-90
2023/04/13 01:17:20;;;;;;;31.33;26.43;;;;;;;;;;5071634;28;20211;-91
2023/04/13 01:19:52;;;;;;;32.03;25.50;;;;;;;;;;5069103;28;20310;-90
2023/04/13 01:22:41;;;;;;;32.43;24.37;;;;;;;;;;5071834;28;20260;-90
2023/04/13 01:25:21;;;;;;;29.90;23.10;;;;;;;;;;5071765;28;20181;-90
2023/04/13 01:27:50;;;;;;;26.50;20.17;;;;;;;;;;5070000;28;20193;-90
2023/04/13 01:30:25;;;;;;;24.80;20.63;;;;;;;;;;5071491;28;20180;-90
2023/04/13 01:32:53;;;;;;;25.77;19.53;;;;;;;;;;5071485;28;20175;-90
2023/04/13 01:35:24;;;;;;;21.03;18.70;;;;;;;;;;5071563;28;20283;-91
2023/04/13 01:37:50;;;;;;;25.93;19.47;;;;;;;;;;5065979;28;20539;-90
2023/04/13 01:40:18;;;;;;;25.50;20.73;;;;;;;;;;5072123;28;20173;-90
2023/04/13 01:42:44;;;;;;;25.93;20.47;;;;;;;;;;5071427;28;20195;-91
2023/04/13 01:45:22;;;;;;;21.97;18.63;;;;;;;;;;5073552;28;20242;-90
2023/04/13 01:47:56;;;;;;;29.77;23.47;;;;;;;;;;5076517;28;20230;-90
2023/04/13 01:50:27;;;;;;;26.63;22.00;;;;;;;;;;5075486;28;20175;-90
2023/04/13 01:52:56;;;;;;;33.20;24.43;;;;;;;;;;5075475;28;20181;-90
2023/04/13 01:55:23;;;;;;;28.23;22.47;;;;;;;;;;5074281;28;20189;-90
2023/04/13 01:57:50;;;;;;;29.03;22.10;;;;;;;;;;5075094;28;20576;-90
2023/04/13 02:00:20;;;;;;;27.40;22.13;;;;;;;;;;5072989;28;20176;-90
2023/04/13 02:02:46;;;;;;;28.83;23.83;;;;;;;;;;5072596;28;20261;-90
2023/04/13 02:05:12;;;;;;;30.43;23.73;;;;;;;;;;5072537;28;20181;-90
2023/04/13 02:07:40;;;;;;;30.33;22.33;;;;;;;;;;5072227;28;20176;-90
2023/04/13 02:10:06;;;;;;;28.83;23.77;;;;;;;;;;5073235;28;20173;-90
2023/04/13 02:12:33;;;;;;;29.80;24.77;;;;;;;;;;5071846;28;20189;-90
2023/04/13 02:15:00;;;;;;;34.23;25.33;;;;;;;;;;5072142;28;20198;-90
2023/04/13 02:17:28;;;;;;;29.33;23.97;;;;;;;;;;5071042;28;20683;-90
2023/04/13 02:19:56;;;;;;;28.87;23.70;;;;;;;;;;5071594;28;20212;-90
2023/04/13 02:22:22;;;;;;;29.43;22.97;;;;;;;;;;5073220;28;20252;-90
2023/04/13 02:24:49;;;;;;;29.33;24.33;;;;;;;;;;5075040;28;20203;-90
2023/04/13 02:27:15;;;;;;;28.47;23.33;;;;;;;;;;5072698;28;20185;-90
2023/04/13 02:29:41;;;;;;;31.20;24.80;;;;;;;;;;5075057;28;20170;-90
2023/04/13 02:32:07;;;;;;;29.47;22.87;;;;;;;;;;5074327;28;20173;-90
2023/04/13 02:34:33;;;;;;;32.93;24.70;;;;;;;;;;5074823;28;20629;-90
2023/04/13 02:36:59;;;;;;;27.07;20.20;;;;;;;;;;5073955;28;20180;-90
2023/04/13 02:39:25;;;;;;;24.23;19.83;;;;;;;;;;5074704;28;20165;-91
2023/04/13 02:41:52;;;;;;;22.10;19.37;;;;;;;;;;5074297;28;20226;-91
2023/04/13 02:44:18;;;;;;;25.90;20.43;;;;;;;;;;5072825;28;20199;-90
2023/04/13 02:46:44;;;;;;;26.53;21.30;;;;;;;;;;5074375;28;20169;-90
2023/04/13 02:49:10;;;;;;;25.87;20.83;;;;;;;;;;5075378;28;20169;-90
2023/04/13 02:51:36;;;;;;;25.77;21.40;;;;;;;;;;5074396;28;20178;-90
2023/04/13 02:54:02;;;;;;;27.07;22.43;;;;;;;;;;5074106;28;20706;-90
2023/04/13 02:56:29;;;;;;;29.77;22.67;;;;;;;;;;5072867;28;20165;-90
2023/04/13 02:58:55;;;;;;;31.53;22.90;;;;;;;;;;5073508;28;20180;-90
2023/04/13 03:01:23;;;;;;;29.40;24.43;;;;;;;;;;5075221;28;20181;-90
2023/04/13 03:03:49;;;;;;;28.27;22.30;;;;;;;;;;5073174;28;20211;-91
2023/04/13 03:06:16;;;;;;;30.83;23.53;;;;;;;;;;5073149;28;20231;-90
2023/04/13 03:08:42;;;;;;;29.67;22.93;;;;;;;;;;5074250;28;20169;-90
2023/04/13 03:11:08;;;;;;;27.20;23.33;;;;;;;;;;5074418;28;20223;-90
2023/04/13 03:13:34;;;;;;;29.17;23.30;;;;;;;;;;5076457;28;20169;-90
2023/04/13 03:16:01;;;;;;;34.47;24.57;;;;;;;;;;5079518;28;20173;-90
2023/04/13 03:18:27;;;;;;;29.43;23.73;;;;;;;;;;5080691;28;20192;-89
2023/04/13 03:20:53;;;;;;;31.37;24.13;;;;;;;;;;5080360;28;20489;-90
2023/04/13 03:23:19;;;;;;;34.37;24.60;;;;;;;;;;5079175;28;20216;-90
2023/04/13 03:25:45;;;;;;;31.67;25.57;;;;;;;;;;5072662;28;20176;-90
2023/04/13 03:28:11;;;;;;;33.00;24.57;;;;;;;;;;5073805;28;20169;-90
2023/04/13 03:30:37;;;;;;;34.60;27.37;;;;;;;;;;5073631;28;20180;-90
2023/04/13 03:33:09;;;;;;;33.47;26.50;;;;;;;;;;5072698;28;20234;-90
2023/04/13 03:35:35;;;;;;;37.47;27.20;;;;;;;;;;5070587;28;20300;-90
2023/04/13 03:38:01;;;;;;;39.40;26.97;;;;;;;;;;5072991;28;20275;-90
2023/04/13 03:40:27;;;;;;;35.17;25.53;;;;;;;;;;5072688;28;20600;-90
2023/04/13 03:42:53;;;;;;;35.47;25.80;;;;;;;;;;5072740;28;20173;-90
2023/04/13 03:45:19;;;;;;;35.50;26.40;;;;;;;;;;5071334;28;20185;-90
2023/04/13 03:47:45;;;;;;;39.33;28.67;;;;;;;;;;5072232;28;20636;-90
2023/04/13 03:50:12;;;;;;;38.47;27.90;;;;;;;;;;5072117;28;20264;-90
2023/04/13 03:52:38;;;;;;;35.93;26.87;;;;;;;;;;5072676;28;20256;-90
2023/04/13 03:55:05;;;;;;;39.13;28.37;;;;;;;;;;5072244;28;20196;-89
2023/04/13 03:57:31;;;;;;;34.07;25.87;;;;;;;;;;5072815;28;20169;-89
2023/04/13 03:59:57;;;;;;;32.93;25.80;;;;;;;;;;5072825;28;20230;-90
2023/04/13 04:02:23;;;;;;;36.60;27.90;;;;;;;;;;5071700;28;20189;-90
2023/04/13 04:04:49;;;;;;;35.80;26.87;;;;;;;;;;5073259;28;20216;-90
2023/04/13 04:07:15;;;;;;;38.70;28.30;;;;;;;;;;5072952;28;20253;-90
2023/04/13 04:09:41;;;;;;;38.47;29.57;;;;;;;;;;5072549;28;20278;-90
2023/04/13 04:12:32;;;;;;;40.37;29.20;;;;;;;;;;5072568;28;20617;-90
2023/04/13 04:14:58;;;;;;;40.40;30.40;;;;;;;;;;5072843;28;20264;-90
2023/04/13 04:17:24;;;;;;;40.07;30.93;;;;;;;;;;5073142;28;20209;-90
2023/04/13 04:19:50;;;;;;;38.13;29.60;;;;;;;;;;5070249;28;20649;-89
2023/04/13 04:22:38;;;;;;;39.07;30.17;;;;;;;;;;5071979;28;20169;-90
2023/04/13 04:25:04;;;;;;;41.63;30.83;;;;;;;;;;5067240;28;20716;-87
2023/04/13 04:27:36;;;;;;;38.17;28.67;;;;;;;;;;5071695;28;20262;-90
2023/04/13 04:30:04;;;;;;;40.43;31.37;;;;;;;;;;5072400;28;20183;-90
2023/04/13 04:32:32;;;;;;;39.80;30.47;;;;;;;;;;5071794;28;20185;-91
2023/04/13 04:34:59;;;;;;;45.07;32.97;;;;;;;;;;5070536;28;20169;-91
2023/04/13 04:37:25;;;;;;;46.23;32.83;;;;;;;;;;5068391;28;20181;-91
2023/04/13 04:39:52;;;;;;;43.40;33.03;;;;;;;;;;5069702;28;20505;-90
2023/04/13 04:42:18;;;;;;;45.80;33.43;;;;;;;;;;5071024;28;20185;-89
2023/04/13 04:44:48;;;;;;;48.90;34.77;;;;;;;;;;5070981;28;20189;-89
2023/04/13 04:47:18;;;;;;;43.27;31.73;;;;;;;;;;5071458;28;20644;-91
2023/04/13 04:49:44;;;;;;;41.47;33.03;;;;;;;;;;5072836;28;20173;-91
2023/04/13 04:52:11;;;;;;;49.60;35.93;;;;;;;;;;5070801;28;20675;-90
2023/04/13 04:54:38;;;;;;;46.83;35.60;;;;;;;;;;5071239;28;20173;-90
2023/04/13 04:57:04;;;;;;;48.77;36.40;;;;;;;;;;5071441;28;20176;-92
2023/04/13 04:59:30;;;;;;;49.10;35.87;;;;;;;;;;5069308;28;20189;-93
2023/04/13 05:01:56;;;;;;;51.73;37.23;;;;;;;;;;5071164;28;20169;-91
2023/04/13 05:04:22;;;;;;;53.20;37.03;;;;;;;;;;5071949;28;20211;-91
2023/04/13 05:06:48;;;;;;;53.30;38.37;;;;;;;;;;5071891;28;20602;-91
2023/04/13 05:09:20;;;;;;;49.07;37.13;;;;;;;;;;5069057;28;20638;-95
2023/04/13 05:11:46;;;;;;;50.17;37.30;;;;;;;;;;5071685;28;20693;-91
2023/04/13 05:14:12;;;;;;;52.80;38.60;;;;;;;;;;5068978;28;20565;-92
2023/04/13 05:16:38;;;;;;;49.30;35.43;;;;;;;;;;5078699;28;20165;-90
2023/04/13 05:19:07;;;;;;;45.37;32.70;;;;;;;;;;5073456;28;20512;-93
2023/04/13 05:21:33;;;;;;;51.00;33.27;;;;;;;;;;5071764;28;20222;-94
2023/04/13 05:23:59;;;;;;;47.80;33.57;;;;;;;;;;5075566;28;20735;-91
2023/04/13 05:26:26;;;;;;;44.20;32.07;;;;;;;;;;5076383;28;20177;-92
2023/04/13 05:28:52;;;;;;;49.70;33.77;;;;;;;;;;5076871;28;20197;-94
2023/04/13 05:31:18;;;;;;;45.07;32.00;;;;;;;;;;5074758;28;20165;-92
2023/04/13 05:33:45;;;;;;;47.03;33.70;;;;;;;;;;5075954;28;20256;-90
2023/04/13 05:36:11;;;;;;;50.77;34.30;;;;;;;;;;5074958;28;20189;-92
2023/04/13 05:38:37;;;;;;;48.33;34.53;;;;;;;;;;5074972;28;20214;-93
2023/04/13 05:41:03;;;;;;;54.73;37.07;;;;;;;;;;5076420;28;20180;-92
2023/04/13 05:43:30;;;;;;;54.20;40.93;;;;;;;;;;5069655;28;20192;-93
2023/04/13 05:45:56;;;;;;;55.67;40.53;;;;;;;;;;5075708;28;20181;-92
2023/04/13 05:48:22;;;;;;;53.83;39.57;;;;;;;;;;5074849;28;20204;-92
2023/04/13 05:50:48;;;;;;;53.33;38.87;;;;;;;;;;5075402;28;20165;-91
2023/04/13 05:53:14;;;;;;;53.30;39.47;;;;;;;;;;5075083;28;20180;-93
2023/04/13 05:55:41;;;;;;;50.50;37.87;;;;;;;;;;5075361;28;20169;-94
2023/04/13 05:58:09;;;;;;;49.53;35.33;;;;;;;;;;5075073;28;20165;-92
2023/04/13 06:00:37;;;;;;;44.10;33.63;;;;;;;;;;5075011;28;20176;-93
2023/04/13 06:03:03;;;;;;;46.83;35.20;;;;;;;;;;5074827;28;20189;-92
2023/04/13 06:05:31;;;;;;;53.20;37.70;;;;;;;;;;5075235;28;20180;-90
2023/04/13 06:07:58;;;;;;;50.33;35.93;;;;;;;;;;5074981;28;20165;-93
2023/04/13 06:10:25;;;;;;;47.27;33.90;;;;;;;;;;5073768;28;20176;-91
2023/04/13 06:12:52;;;;;;;38.57;29.60;;;;;;;;;;5074412;28;20217;-90
2023/04/13 06:15:19;;;;;;;39.67;29.23;;;;;;;;;;5073867;28;20173;-90
2023/04/13 06:17:45;;;;;;;44.10;30.87;;;;;;;;;;5074436;28;20256;-91
2023/04/13 06:20:11;;;;;;;41.50;29.30;;;;;;;;;;5073073;28;20332;-90
2023/04/13 06:22:37;;;;;;;42.23;31.37;;;;;;;;;;5074946;28;20169;-90
2023/04/13 06:25:04;;;;;;;36.70;28.57;;;;;;;;;;5074095;28;20201;-93
2023/04/13 06:27:32;;;;;;;37.20;28.53;;;;;;;;;;5075371;28;20226;-90
2023/04/13 06:29:58;;;;;;;38.20;30.17;;;;;;;;;;5075384;28;20173;-89
2023/04/13 06:32:24;;;;;;;34.73;28.53;;;;;;;;;;5074450;28;20208;-90
2023/04/13 06:35:13;;;;;;;38.63;27.67;;;;;;;;;;5073268;28;20218;-90
2023/04/13 06:37:39;;;;;;;34.10;28.10;;;;;;;;;;5074456;28;20618;-90
2023/04/13 06:40:09;;;;;;;36.93;29.10;;;;;;;;;;5073679;28;20192;-90
2023/04/13 06:42:35;;;;;;;33.57;27.90;;;;;;;;;;5071516;28;20184;-90
2023/04/13 06:45:02;;;;;;;31.33;26.30;;;;;;;;;;5073892;28;20204;-89
2023/04/13 06:47:27;;;;;;;29.80;24.77;;;;;;;;;;5070924;28;20701;-88
2023/04/13 06:49:53;;;;;;;31.53;24.50;;;;;;;;;;5074469;28;20204;-88
2023/04/13 06:52:20;;;;;;;29.93;22.70;;;;;;;;;;5074428;28;20210;-90
2023/04/13 06:54:46;;;;;;;28.97;23.53;;;;;;;;;;5073031;28;20181;-89
2023/04/13 06:57:12;;;;;;;30.43;24.20;;;;;;;;;;5073932;28;20192;-90
2023/04/13 06:59:38;;;;;;;31.57;24.77;;;;;;;;;;5072529;28;20169;-90
2023/04/13 07:02:04;;;;;;;29.73;24.87;;;;;;;;;;5072322;28;20191;-90
2023/04/13 07:04:30;;;;;;;29.87;24.50;;;;;;;;;;5073402;28;20201;-90
2023/04/13 07:06:56;;;;;;;31.40;23.13;;;;;;;;;;5073811;28;20181;-91
2023/04/13 07:09:22;;;;;;;27.67;22.13;;;;;;;;;;5073683;28;20648;-91
2023/04/13 07:11:49;;;;;;;24.87;20.93;;;;;;;;;;5073678;28;20157;-90
2023/04/13 07:14:15;;;;;;;22.03;17.63;;;;;;;;;;5072438;28;20187;-90
2023/04/13 07:16:41;;;;;;;22.77;16.07;;;;;;;;;;5073774;28;20173;-90
2023/04/13 07:19:08;;;;;;;32.57;21.23;;;;;;;;;;5072630;28;20177;-88
2023/04/13 07:21:34;;;;;;;25.93;19.80;;;;;;;;;;5070526;28;20220;-91
2023/04/13 07:24:00;;;;;;;25.67;18.60;;;;;;;;;;5071318;28;20535;-88
2023/04/13 07:26:26;;;;;;;21.20;15.70;;;;;;;;;;5070698;28;20215;-90
2023/04/13 07:28:52;;;;;;;18.70;16.43;;;;;;;;;;5070984;28;20203;-90
2023/04/13 07:31:18;;;;;;;24.77;19.40;;;;;;;;;;5070111;28;20269;-90
2023/04/13 07:33:44;;;;;;;20.23;15.53;;;;;;;;;;5069882;28;20272;-88
2023/04/13 07:36:10;;;;;;;20.80;15.53;;;;;;;;;;5069950;28;20234;-89
2023/04/13 07:38:37;;;;;;;19.07;15.50;;;;;;;;;;5069964;28;20183;-90
2023/04/13 07:41:03;;;;;;;14.67;11.57;;;;;;;;;;5069294;28;20165;-89
2023/04/13 07:43:29;;;;;;;12.10;10.70;;;;;;;;;;5069672;28;20791;-87
2023/04/13 07:45:55;;;;;;;12.83;11.53;;;;;;;;;;5071910;28;20181;-88
2023/04/13 07:48:21;;;;;;;11.30;10.07;;;;;;;;;;5070260;28;20226;-88
2023/04/13 07:50:47;;;;;;;9.37;8.43;;;;;;;;;;5071265;28;20208;-89
2023/04/13 07:53:13;;;;;;;11.83;10.00;;;;;;;;;;5071487;28;20173;-88
2023/04/13 07:55:39;;;;;;;12.50;10.80;;;;;;;;;;5072881;28;20165;-91
2023/04/13 07:58:05;;;;;;;10.90;9.37;;;;;;;;;;5073269;28;20258;-91
2023/04/13 08:00:31;;;;;;;14.23;10.07;;;;;;;;;;5073382;28;20201;-91
2023/04/13 08:02:57;;;;;;;11.83;9.63;;;;;;;;;;5073181;28;20179;-90
2023/04/13 08:05:23;;;;;;;13.17;9.87;;;;;;;;;;5073860;28;20184;-91
2023/04/13 08:07:49;;;;;;;13.20;10.40;;;;;;;;;;5072913;28;20170;-91
2023/04/13 08:10:15;;;;;;;12.17;10.50;;;;;;;;;;5073175;28;20234;-91
2023/04/13 08:12:41;;;;;;;12.60;9.63;;;;;;;;;;5072919;28;20161;-94
2023/04/13 08:15:08;;;;;;;15.03;10.50;;;;;;;;;;5072449;28;20180;-90
2023/04/13 08:17:34;;;;;;;13.60;10.33;;;;;;;;;;5072464;28;20173;-91
2023/04/13 08:20:00;;;;;;;12.77;10.73;;;;;;;;;;5072185;28;20216;-90
2023/04/13 08:22:26;;;;;;;11.97;9.93;;;;;;;;;;5071367;28;20197;-94
2023/04/13 08:24:53;;;;;;;12.53;10.10;;;;;;;;;;5071068;28;20315;-90
2023/04/13 08:27:19;;;;;;;13.57;9.40;;;;;;;;;;5071993;28;20170;-93
2023/04/13 08:29:45;;;;;;;11.60;10.20;;;;;;;;;;5072098;28;20169;-91
2023/04/13 08:32:11;;;;;;;12.33;9.60;;;;;;;;;;5072444;28;20165;-93
2023/04/13 08:34:37;;;;;;;12.53;9.27;;;;;;;;;;5071702;28;20268;-90
2023/04/13 08:37:03;;;;;;;12.13;10.03;;;;;;;;;;5071796;28;20173;-94
2023/04/13 08:39:30;;;;;;;13.03;10.17;;;;;;;;;;5070640;28;20639;-91
2023/04/13 08:41:56;;;;;;;13.30;9.50;;;;;;;;;;5071557;28;20212;-92
2023/04/13 08:44:23;;;;;;;11.43;8.93;;;;;;;;;;5072044;28;20201;-90
2023/04/13 08:46:49;;;;;;;11.00;9.73;;;;;;;;;;5068377;28;20195;-90
2023/04/13 08:49:15;;;;;;;13.97;10.80;;;;;;;;;;5071988;28;20637;-89
2023/04/13 08:51:44;;;;;;;14.97;11.53;;;;;;;;;;5084100;28;20177;-90
2023/04/13 08:54:12;;;;;;;12.13;10.17;;;;;;;;;;5087341;28;20189;-90
2023/04/13 08:56:40;;;;;;;13.67;9.30;;;;;;;;;;5082371;28;20176;-90
2023/04/13 08:59:07;;;;;;;11.73;9.00;;;;;;;;;;5073040;28;20170;-89
2023/04/13 09:01:37;;;;;;;12.00;8.43;;;;;;;;;;5071102;28;20169;-90
2023/04/13 09:04:10;;;;;;;14.83;9.33;;;;;;;;;;5070782;28;20244;-86
2023/04/13 09:06:38;;;;;;;11.47;9.43;;;;;;;;;;5070542;28;20188;-86
2023/04/13 09:09:06;;;;;;;14.27;9.00;;;;;;;;;;5069993;28;20207;-87
2023/04/13 09:11:32;;;;;;;12.90;9.97;;;;;;;;;;5069519;28;20252;-87
2023/04/13 09:13:58;;;;;;;11.53;10.10;;;;;;;;;;5069782;28;20674;-87
2023/04/13 09:16:24;;;;;;;10.50;9.37;;;;;;;;;;5069329;28;20185;-87
2023/04/13 09:18:51;;;;;;;13.17;10.23;;;;;;;;;;5068133;28;20177;-87
2023/04/13 09:21:17;;;;;;;11.00;9.50;;;;;;;;;;5063115;28;20311;-87
2023/04/13 09:23:59;;;;;;;11.20;9.30;;;;;;;;;;5067933;28;20213;-86
2023/04/13 09:26:25;;;;;;;12.67;9.80;;;;;;;;;;5069426;28;20629;-86
2023/04/13 09:28:54;;;;;;;10.60;9.53;;;;;;;;;;5069323;28;20589;-86
2023/04/13 09:31:20;;;;;;;10.10;8.53;;;;;;;;;;5069358;28;20200;-86
2023/04/13 09:33:52;;;;;;;11.43;8.97;;;;;;;;;;5068815;28;20184;-87
2023/04/13 09:36:20;;;;;;;11.60;8.40;;;;;;;;;;5070501;28;20177;-87
2023/04/13 09:38:53;;;;;;;8.93;7.93;;;;;;;;;;5068206;28;20172;-87
2023/04/13 09:41:32;;;;;;;11.97;8.30;;;;;;;;;;5070608;28;20173;-86
2023/04/13 09:44:02;;;;;;;8.53;7.23;;;;;;;;;;5068990;28;20201;-86
2023/04/13 09:46:28;;;;;;;8.07;7.23;;;;;;;;;;5066919;28;20192;-87
2023/04/13 09:49:01;;;;;;;9.80;7.53;;;;;;;;;;5067180;28;20173;-86
2023/04/13 09:51:35;;;;;;;10.67;7.90;;;;;;;;;;5068797;28;20188;-87
2023/04/13 09:54:01;;;;;;;8.27;7.47;;;;;;;;;;5068181;28;20602;-86
2023/04/13 09:56:27;;;;;;;10.87;7.50;;;;;;;;;;5069263;28;20497;-87
2023/04/13 09:58:53;;;;;;;8.00;7.20;;;;;;;;;;5068894;28;20173;-87
2023/04/13 10:01:20;;;;;;;7.47;6.73;;;;;;;;;;5069221;28;20185;-87
2023/04/13 10:03:46;;;;;;;8.73;7.83;;;;;;;;;;5068497;28;20228;-87
2023/04/13 10:06:13;;;;;;;11.67;7.43;;;;;;;;;;5070588;28;20199;-88
2023/04/13 10:08:41;;;;;;;8.47;7.57;;;;;;;;;;5070957;28;20203;-88
2023/04/13 10:11:10;;;;;;;9.73;8.10;;;;;;;;;;5073144;28;20169;-87
2023/04/13 10:13:54;;;;;;;9.27;8.37;;;;;;;;;;5071589;28;20183;-88
2023/04/13 10:16:36;;;;;;;12.97;7.23;;;;;;;;;;5071854;28;20192;-88
2023/04/13 10:19:05;;;;;;;10.83;6.40;;;;;;;;;;5072685;28;20185;-88
2023/04/13 10:21:34;;;;;;;11.60;6.10;;;;;;;;;;5081485;28;20220;-87
2023/04/13 10:24:01;;;;;;;6.30;5.70;;;;;;;;;;5071464;28;20208;-88
2023/04/13 10:26:31;;;;;;;9.90;5.40;;;;;;;;;;5073086;28;20165;-88
2023/04/13 10:28:57;;;;;;;6.17;5.50;;;;;;;;;;5071791;28;20181;-87
2023/04/13 10:31:35;;;;;;;5.43;4.87;;;;;;;;;;5069237;28;20637;-87
2023/04/13 10:34:01;;;;;;;6.87;5.83;;;;;;;;;;5072507;28;20184;-86
2023/04/13 10:36:36;;;;;;;5.90;5.40;;;;;;;;;;5072351;28;20181;-88
2023/04/13 10:39:02;;;;;;;7.77;6.13;;;;;;;;;;5070411;28;20191;-87
2023/04/13 10:41:29;;;;;;;7.60;6.03;;;;;;;;;;5072148;28;20176;-87
2023/04/13 10:44:02;;;;;;;6.63;5.97;;;;;;;;;;5071409;28;20689;-87
2023/04/13 10:46:28;;;;;;;6.93;6.03;;;;;;;;;;5072025;28;20193;-87
2023/04/13 10:48:54;;;;;;;6.67;6.00;;;;;;;;;;5071094;28;20180;-88
2023/04/13 10:51:20;;;;;;;5.97;5.17;;;;;;;;;;5071162;28;25279;-87
2023/04/13 10:53:46;;;;;;;7.07;5.93;;;;;;;;;;5071354;28;20176;-86
2023/04/13 10:56:16;;;;;;;9.20;6.07;;;;;;;;;;5071056;28;20621;-87
2023/04/13 10:58:42;;;;;;;6.07;5.13;;;;;;;;;;5071305;28;20185;-86
2023/04/13 11:01:10;;;;;;;7.50;5.17;;;;;;;;;;5072537;28;20203;-88
2023/04/13 11:03:36;;;;;;;7.17;5.20;;;;;;;;;;5071507;28;20266;-86
2023/04/13 11:06:02;;;;;;;5.40;4.90;;;;;;;;;;5072723;28;20169;-88
2023/04/13 11:08:29;;;;;;;6.80;5.30;;;;;;;;;;5072698;28;20170;-89
2023/04/13 11:10:55;;;;;;;5.67;5.07;;;;;;;;;;5071803;28;20181;-88
2023/04/13 11:13:27;;;;;;;4.67;4.13;;;;;;;;;;5072149;28;20211;-87
2023/04/13 11:16:01;;;;;;;5.80;4.63;;;;;;;;;;5071457;28;21491;-86
2023/04/13 11:18:27;;;;;;;5.60;4.27;;;;;;;;;;5070253;28;20809;-87
2023/04/13 11:20:54;;;;;;;6.67;5.53;;;;;;;;;;5070520;28;20259;-86
2023/04/13 11:23:22;;;;;;;6.83;5.10;;;;;;;;;;5070683;28;20641;-90
2023/04/13 11:25:56;;;;;;;7.27;5.10;;;;;;;;;;5070081;28;20185;-86
2023/04/13 11:28:23;;;;;;;5.67;5.10;;;;;;;;;;5069850;28;20176;-87
2023/04/13 11:30:54;;;;;;;8.87;5.27;;;;;;;;;;5068012;28;20169;-86
2023/04/13 11:33:25;;;;;;;5.07;4.60;;;;;;;;;;5070555;28;20180;-87
2023/04/13 11:35:51;;;;;;;6.17;4.90;;;;;;;;;;5070195;28;20173;-87
2023/04/13 11:38:19;;;;;;;7.10;4.83;;;;;;;;;;5069543;28;20193;-88
2023/04/13 11:40:46;;;;;;;6.60;4.93;;;;;;;;;;5071712;28;20173;-87
2023/04/13 11:43:14;;;;;;;4.90;4.40;;;;;;;;;;5070303;28;20179;-85
2023/04/13 11:45:42;;;;;;;4.53;3.83;;;;;;;;;;5068632;28;20170;-87
2023/04/13 11:48:08;;;;;;;5.70;3.70;;;;;;;;;;5069516;28;20783;-87
2023/04/13 11:50:35;;;;;;;4.77;3.87;;;;;;;;;;5070809;28;20264;-87
2023/04/13 11:53:02;;;;;;;5.03;3.90;;;;;;;;;;5068293;28;20497;-87
2023/04/13 11:55:28;;;;;;;4.90;3.67;;;;;;;;;;5068602;28;20181;-87
2023/04/13 11:57:55;;;;;;;3.87;3.40;;;;;;;;;;5069173;28;20196;-86
2023/04/13 12:00:25;;;;;;;3.67;3.37;;;;;;;;;;5069630;28;20193;-87
2023/04/13 12:02:52;;;;;;;5.77;4.60;;;;;;;;;;5070085;28;20164;-87
2023/04/13 12:05:25;;;;;;;4.97;4.17;;;;;;;;;;5068867;28;20541;-87
2023/04/13 12:07:53;;;;;;;6.23;4.17;;;;;;;;;;5067987;28;20177;-87
2023/04/13 12:10:35;;;;;;;4.97;3.77;;;;;;;;;;5067193;28;20184;-86
2023/04/13 12:13:02;;;;;;;5.57;4.40;;;;;;;;;;5067964;28;20211;-87
2023/04/13 12:15:33;;;;;;;6.50;4.50;;;;;;;;;;5068718;28;20302;-87
2023/04/13 12:18:03;;;;;;;5.90;4.50;;;;;;;;;;5070164;28;20185;-86
2023/04/13 12:20:37;;;;;;;7.97;4.20;;;;;;;;;;5068311;28;20213;-88
2023/04/13 12:23:03;;;;;;;6.83;4.17;;;;;;;;;;5068138;28;20192;-86
2023/04/13 12:25:31;;;;;;;4.90;4.07;;;;;;;;;;5068507;28;20528;-87
2023/04/13 12:27:57;;;;;;;3.90;3.50;;;;;;;;;;5070085;28;21154;-87
2023/04/13 12:30:25;;;;;;;6.07;4.70;;;;;;;;;;5069305;28;20299;-87
2023/04/13 12:32:52;;;;;;;5.63;5.03;;;;;;;;;;5069806;28;20165;-87
2023/04/13 12:35:20;;;;;;;4.63;4.23;;;;;;;;;;5067551;28;20327;-87
2023/04/13 12:37:47;;;;;;;7.13;4.70;;;;;;;;;;5068277;28;20192;-91
2023/04/13 12:40:14;;;;;;;6.53;4.40;;;;;;;;;;5070975;28;20169;-89
2023/04/13 12:42:44;;;;;;;8.30;4.10;;;;;;;;;;5076245;28;20181;-89
2023/04/13 12:45:10;;;;;;;4.73;4.10;;;;;;;;;;5079319;28;20196;-89
2023/04/13 12:47:36;;;;;;;4.87;4.00;;;;;;;;;;5077112;28;20177;-89
2023/04/13 12:50:06;;;;;;;6.63;4.27;;;;;;;;;;5073662;28;20188;-89
2023/04/13 12:52:33;;;;;;;5.80;4.47;;;;;;;;;;5071263;28;20181;-87
2023/04/13 12:54:59;;;;;;;4.63;3.77;;;;;;;;;;5071793;28;20180;-89
2023/04/13 12:57:29;;;;;;;4.13;3.73;;;;;;;;;;5070417;28;20165;-89
2023/04/13 12:59:55;;;;;;;4.50;3.73;;;;;;;;;;5072140;28;20268;-89
2023/04/13 13:02:26;;;;;;;6.63;4.20;;;;;;;;;;5072697;28;20508;-90
2023/04/13 13:04:56;;;;;;;5.83;3.80;;;;;;;;;;5069067;28;20193;-89
2023/04/13 13:07:22;;;;;;;4.17;3.43;;;;;;;;;;5071731;28;20181;-89
2023/04/13 13:09:48;;;;;;;4.43;3.77;;;;;;;;;;5071367;28;20193;-89
2023/04/13 13:12:14;;;;;;;3.70;3.40;;;;;;;;;;5066458;28;20185;-89
2023/04/13 13:14:41;;;;;;;4.70;3.70;;;;;;;;;;5068570;28;20176;-90
2023/04/13 13:17:07;;;;;;;5.53;4.30;;;;;;;;;;5068383;28;20188;-91
2023/04/13 13:19:33;;;;;;;4.47;3.90;;;;;;;;;;5067519;28;20653;-89
2023/04/13 13:22:00;;;;;;;5.43;3.70;;;;;;;;;;5068248;28;20223;-88
2023/04/13 13:24:26;;;;;;;7.50;3.83;;;;;;;;;;5068160;28;20193;-88
2023/04/13 13:26:56;;;;;;;4.77;3.93;;;;;;;;;;5068779;28;20173;-88
2023/04/13 13:29:22;;;;;;;5.10;3.40;;;;;;;;;;5068630;28;20234;-88
2023/04/13 13:31:50;;;;;;;4.17;3.77;;;;;;;;;;5068076;28;20260;-88
2023/04/13 13:34:16;;;;;;;4.47;3.83;;;;;;;;;;5067912;28;20280;-88
2023/04/13 13:36:42;;;;;;;5.47;3.87;;;;;;;;;;5069897;28;20177;-89
2023/04/13 13:39:08;;;;;;;6.87;3.50;;;;;;;;;;5071187;28;20641;-89
2023/04/13 13:41:34;;;;;;;4.37;3.20;;;;;;;;;;5071250;28;20177;-90
2023/04/13 13:44:04;;;;;;;4.00;3.63;;;;;;;;;;5073808;28;20200;-89
2023/04/13 13:46:30;;;;;;;5.27;3.60;;;;;;;;;;5071964;28;20185;-89
2023/04/13 13:48:55;;;;;;;4.73;3.57;;;;;;;;;;5073565;28;20666;-89
2023/04/13 13:51:22;;;;;;;4.57;3.47;;;;;;;;;;5073630;28;20269;-89
2023/04/13 13:53:47;;;;;;;5.00;3.90;;;;;;;;;;5072501;28;20623;-89
2023/04/13 13:56:13;;;;;;;3.57;3.27;;;;;;;;;;5071982;28;20356;-88
2023/04/13 13:58:39;;;;;;;3.93;3.47;;;;;;;;;;5071869;28;20181;-89
2023/04/13 14:01:05;;;;;;;4.07;3.10;;;;;;;;;;5073061;28;20621;-89
2023/04/13 14:03:31;;;;;;;3.77;3.07;;;;;;;;;;5072055;28;20226;-89
2023/04/13 14:05:57;;;;;;;4.90;2.90;;;;;;;;;;5073679;28;20679;-90
2023/04/13 14:08:23;;;;;;;3.40;2.93;;;;;;;;;;5072624;28;20184;-90
2023/04/13 14:10:50;;;;;;;6.43;3.27;;;;;;;;;;5073681;28;20537;-88
2023/04/13 14:13:16;;;;;;;3.30;2.90;;;;;;;;;;5072327;28;20181;-88
2023/04/13 14:15:42;;;;;;;4.03;3.00;;;;;;;;;;5072708;28;20544;-88
2023/04/13 14:18:08;;;;;;;4.73;3.27;;;;;;;;;;5073773;28;20173;-88
2023/04/13 14:20:37;;;;;;;3.17;2.87;;;;;;;;;;5073094;28;20232;-88
2023/04/13 14:23:03;;;;;;;4.90;3.17;;;;;;;;;;5072387;28;20187;-88
2023/04/13 14:25:29;;;;;;;8.33;3.10;;;;;;;;;;5072067;28;20625;-88
2023/04/13 14:27:55;;;;;;;4.33;2.73;;;;;;;;;;5072658;28;20173;-87